Archer, Nebraska
Current Conditions -  °F | °C
As of 6:53 AM on Friday 31 Oct 2014 (Local Time) from KGRI Reporting Station
Few Clouds Few Clouds  
Wind Chill: 19°   Ceiling: Unl
Heat Index: 28°   Visibility: 10mi
Dew Point: 21°   Wind: 9mph
Humidity: 75%   Direction: 20°NNE
Pressure: 30.56"   Gusts: NA
Location:  41.17°N, 98.14°W
Report Text: KGRI 311153Z 02008KT 10SM FEW023 M02/M06 A3056 RMK AO2 SLP361 T10221061 10028 21022 51012
Loading
Personal Weather Stations






























Interactive Weather Map
Tropical Storm Tracking
New forecast layout! Learn more

10-Day Weather Forecast

Advertisements
Track Severe Weather on mobile